Time;durP1;ratioP1;P1;durP2;ratioP2;P2;SDS_P1;SDS_P2;PMS_P1;PMS_P2;Temp;Humidity;BMP_temperature;BMP_pressure;BME280_temperature;BME280_humidity;BME280_pressure;Samples;Min_cycle;Max_cycle;Signal;HPM_P1;HPM_P2
2022/03/07 00:02:10;;;;;;;9.30;5.37;;;;;;;4.71;65.75;94206.69;5046758;28;20428;-79
2022/03/07 00:04:36;;;;;;;7.70;4.83;;;;;;;4.72;65.62;94205.69;5054370;28;20465;-79
2022/03/07 00:07:01;;;;;;;4.40;4.00;;;;;;;4.72;65.79;94216.84;5053359;28;20422;-78
2022/03/07 00:09:27;;;;;;;6.80;4.67;;;;;;;4.70;65.51;94218.81;5053261;28;20187;-79
2022/03/07 00:12:02;;;;;;;5.50;4.27;;;;;;;4.94;65.03;94214.50;5058055;28;20222;-79
2022/03/07 00:14:28;;;;;;;6.27;5.43;;;;;;;4.66;64.87;94202.78;5053463;28;20442;-79
2022/03/07 00:16:54;;;;;;;5.07;3.77;;;;;;;4.86;64.72;94205.78;5049488;28;20430;-78
2022/03/07 00:19:19;;;;;;;5.27;4.67;;;;;;;4.63;65.42;94202.31;5052201;28;20186;-79
2022/03/07 00:21:45;;;;;;;5.47;4.30;;;;;;;4.72;65.49;94195.31;5056348;28;20436;-79
2022/03/07 00:24:10;;;;;;;7.00;3.90;;;;;;;4.76;64.96;94191.41;5054356;28;20211;-80
2022/03/07 00:26:36;;;;;;;6.33;4.10;;;;;;;4.68;64.92;94194.84;5052628;28;20272;-78
2022/03/07 00:29:02;;;;;;;7.10;5.50;;;;;;;4.83;64.63;94192.34;5054077;28;20269;-79
2022/03/07 00:31:27;;;;;;;6.77;4.47;;;;;;;4.79;65.11;94186.69;5065403;28;20245;-78
2022/03/07 00:33:53;;;;;;;6.70;5.10;;;;;;;4.35;66.52;94189.81;5061059;28;20429;-79
2022/03/07 00:36:19;;;;;;;6.60;5.43;;;;;;;4.67;65.90;94182.88;5061454;28;20218;-79
2022/03/07 00:38:45;;;;;;;7.67;4.97;;;;;;;4.97;65.38;94178.66;5056204;28;20198;-79
2022/03/07 00:41:10;;;;;;;9.33;6.10;;;;;;;4.96;65.74;94182.22;5063043;28;20425;-79
2022/03/07 00:43:36;;;;;;;8.77;6.90;;;;;;;5.04;65.33;94178.78;5060219;28;20212;-78
2022/03/07 00:46:06;;;;;;;9.10;7.07;;;;;;;4.70;66.88;94179.94;5089908;28;20206;-80
2022/03/07 00:48:31;;;;;;;8.67;6.30;;;;;;;5.03;65.62;94175.38;5051777;28;20447;-79
2022/03/07 00:51:05;;;;;;;10.90;7.80;;;;;;;5.05;65.94;94176.00;5055809;28;20435;-79
2022/03/07 00:53:31;;;;;;;9.43;7.10;;;;;;;4.73;66.56;94171.81;5068506;28;20199;-79
2022/03/07 00:55:56;;;;;;;14.43;7.90;;;;;;;5.21;65.60;94180.28;5095143;28;20421;-78
2022/03/07 00:58:22;;;;;;;10.70;6.70;;;;;;;4.79;66.67;94172.94;5055289;28;20639;-78
2022/03/07 01:00:51;;;;;;;9.17;6.43;;;;;;;4.90;66.50;94177.72;5054567;28;20910;-78
2022/03/07 01:03:18;;;;;;;9.90;6.80;;;;;;;4.80;66.71;94185.72;5050738;28;20449;-78
2022/03/07 01:05:44;;;;;;;14.03;6.60;;;;;;;5.06;65.59;94192.38;5060874;28;20761;-79
2022/03/07 01:08:10;;;;;;;10.30;7.23;;;;;;;4.69;67.42;94188.69;5061369;28;20654;-78
2022/03/07 01:10:38;;;;;;;9.00;7.47;;;;;;;5.07;65.49;94184.44;5060748;28;20421;-79
2022/03/07 01:13:38;;;;;;;11.73;6.57;;;;;;;5.21;64.62;94176.88;5086809;28;20436;-78
2022/03/07 01:16:04;;;;;;;13.00;6.97;;;;;;;5.21;64.71;94162.13;5056728;28;20439;-79
2022/03/07 01:18:29;;;;;;;9.90;7.00;;;;;;;5.23;65.11;94162.75;5057143;28;20493;-78
2022/03/07 01:21:04;;;;;;;10.17;6.50;;;;;;;5.41;64.76;94164.25;5053866;28;20172;-78
2022/03/07 01:23:30;;;;;;;15.23;8.50;;;;;;;5.23;65.21;94161.94;5055447;28;20366;-79
2022/03/07 01:25:56;;;;;;;9.17;7.53;;;;;;;5.59;64.31;94162.16;5051662;28;21949;-78
2022/03/07 01:28:22;;;;;;;14.47;8.70;;;;;;;4.81;66.63;94163.19;5047295;28;20206;-79
2022/03/07 01:30:48;;;;;;;9.13;7.20;;;;;;;5.11;66.01;94169.34;5056109;28;20433;-78
2022/03/07 01:33:22;;;;;;;12.87;9.17;;;;;;;5.12;66.08;94163.16;5045997;28;20274;-79
2022/03/07 01:35:47;;;;;;;12.77;8.37;;;;;;;5.24;65.46;94158.38;5060885;28;20482;-78
2022/03/07 01:38:13;;;;;;;12.73;8.87;;;;;;;5.16;65.34;94155.84;5054865;28;20429;-79
2022/03/07 01:40:41;;;;;;;14.60;8.97;;;;;;;5.13;65.30;94159.59;5059378;28;20183;-79
2022/03/07 01:43:07;;;;;;;11.40;8.30;;;;;;;5.28;65.42;94154.47;5050835;28;20205;-78
2022/03/07 01:45:33;;;;;;;11.23;7.37;;;;;;;5.21;65.46;94158.72;5059643;28;20465;-79
2022/03/07 01:48:20;;;;;;;17.07;8.30;;;;;;;4.97;65.40;94152.75;5038689;28;20416;-78
2022/03/07 01:50:58;;;;;;;13.20;7.20;;;;;;;5.30;64.66;94149.09;5057558;28;20195;-78
2022/03/07 01:53:27;;;;;;;15.20;8.50;;;;;;;5.16;65.26;94143.69;5049678;28;20441;-78
2022/03/07 01:55:55;;;;;;;12.53;8.47;;;;;;;5.42;64.67;94151.09;5061271;28;20429;-78
2022/03/07 01:58:21;;;;;;;13.20;8.33;;;;;;;5.42;64.95;94152.88;5061099;28;20430;-78
2022/03/07 02:00:47;;;;;;;13.70;9.30;;;;;;;5.45;65.07;94149.97;5058490;28;20448;-79
2022/03/07 02:03:57;;;;;;;11.33;9.20;;;;;;;5.42;64.40;94155.47;5050191;28;20446;-79
2022/03/07 02:06:44;;;;;;;14.37;7.90;;;;;;;5.50;64.12;94146.81;5039853;28;20219;-78
2022/03/07 02:09:14;;;;;;;9.87;6.90;;;;;;;5.00;66.11;94156.75;5031562;28;20421;-78
2022/03/07 02:11:40;;;;;;;13.17;8.37;;;;;;;5.44;64.94;94149.16;5053114;28;20536;-79
2022/03/07 02:14:11;;;;;;;12.97;7.80;;;;;;;5.34;64.94;94147.78;5054286;28;20409;-78
2022/03/07 02:16:37;;;;;;;10.30;7.00;;;;;;;5.40;65.20;94147.06;5055369;28;20187;-78
2022/03/07 02:19:03;;;;;;;11.67;8.17;;;;;;;5.27;65.29;94147.66;5054685;28;20421;-78
2022/03/07 02:21:31;;;;;;;10.30;8.43;;;;;;;5.17;64.53;94149.69;5056848;28;20818;-79
2022/03/07 02:23:57;;;;;;;8.90;6.73;;;;;;;5.23;64.84;94146.38;5045114;28;20203;-79
2022/03/07 02:26:23;;;;;;;10.70;7.30;;;;;;;5.30;64.80;94152.50;5051697;28;20477;-78
2022/03/07 02:29:10;;;;;;;11.97;8.00;;;;;;;5.36;65.41;94159.59;5042623;28;20171;-78
2022/03/07 02:31:36;;;;;;;9.83;7.33;;;;;;;5.22;64.91;94161.16;5044591;28;20191;-79
2022/03/07 02:34:04;;;;;;;9.80;7.80;;;;;;;5.26;64.96;94157.22;5056356;28;20428;-79
2022/03/07 02:36:31;;;;;;;9.90;7.23;;;;;;;5.58;63.88;94160.53;5055107;28;20526;-79
2022/03/07 02:38:56;;;;;;;9.50;6.70;;;;;;;5.09;65.77;94168.69;5056719;28;20421;-78
2022/03/07 02:41:22;;;;;;;8.83;6.70;;;;;;;4.58;66.47;94168.34;5059765;28;20789;-79
2022/03/07 02:43:47;;;;;;;8.03;7.13;;;;;;;5.07;65.89;94168.06;5059116;28;20210;-79
2022/03/07 02:46:13;;;;;;;11.83;7.00;;;;;;;5.23;65.46;94148.97;5060777;28;20235;-79
2022/03/07 02:48:39;;;;;;;9.03;7.10;;;;;;;5.11;65.28;94158.16;5048800;28;20175;-78
2022/03/07 02:51:04;;;;;;;9.50;6.67;;;;;;;5.04;65.75;94163.22;5055981;28;20182;-78
2022/03/07 02:53:30;;;;;;;11.03;6.83;;;;;;;4.92;66.35;94167.19;5057851;28;20429;-78
2022/03/07 02:55:55;;;;;;;8.97;7.13;;;;;;;4.71;66.80;94171.19;5056890;28;20273;-79
2022/03/07 02:58:21;;;;;;;8.60;6.20;;;;;;;4.95;66.29;94169.44;5065039;28;20175;-79
2022/03/07 03:00:47;;;;;;;9.37;7.20;;;;;;;5.12;66.17;94168.34;5062058;28;20184;-79
2022/03/07 03:03:13;;;;;;;12.33;7.20;;;;;;;5.33;65.29;94165.13;5056458;28;20435;-79
2022/03/07 03:05:44;;;;;;;8.90;7.03;;;;;;;5.40;65.12;94167.81;5060954;28;20556;-79
2022/03/07 03:08:10;;;;;;;10.43;7.87;;;;;;;5.65;64.30;94171.03;5052288;28;20187;-79
2022/03/07 03:10:38;;;;;;;9.60;7.20;;;;;;;5.43;64.81;94168.28;5060456;28;20429;-79
2022/03/07 03:13:04;;;;;;;9.63;6.80;;;;;;;4.81;66.74;94173.56;5056508;28;20202;-79
2022/03/07 03:15:30;;;;;;;9.13;7.00;;;;;;;5.09;66.17;94173.88;5048779;28;20429;-79
2022/03/07 03:17:55;;;;;;;7.77;6.80;;;;;;;5.32;65.42;94171.28;5054748;28;20734;-79
2022/03/07 03:20:21;;;;;;;11.60;7.90;;;;;;;5.22;65.93;94175.91;5054526;28;20801;-79
2022/03/07 03:22:46;;;;;;;9.50;7.23;;;;;;;5.44;65.05;94174.28;5048233;28;20243;-78
2022/03/07 03:25:15;;;;;;;9.63;6.53;;;;;;;5.54;65.61;94182.66;5059120;28;20246;-79
2022/03/07 03:27:41;;;;;;;8.50;6.57;;;;;;;5.62;65.28;94176.59;5049395;28;20178;-79
2022/03/07 03:30:09;;;;;;;9.73;7.93;;;;;;;5.62;65.19;94182.56;5047228;28;20546;-79
2022/03/07 03:32:34;;;;;;;9.20;6.40;;;;;;;5.72;64.95;94181.53;5054092;28;20181;-78
2022/03/07 03:35:00;;;;;;;7.60;6.27;;;;;;;5.73;64.90;94175.34;5062680;28;20433;-79
2022/03/07 03:40:55;;;;;;;7.63;6.50;;;;;;;5.82;64.05;94176.88;5060405;28;20194;-78
2022/03/07 03:43:21;;;;;;;8.50;6.70;;;;;;;5.65;64.28;94177.03;5065312;28;20433;-79
2022/03/07 03:45:54;;;;;;;8.80;7.30;;;;;;;5.42;64.89;94176.25;5054867;28;20190;-79
2022/03/07 03:48:20;;;;;;;8.63;7.13;;;;;;;5.31;65.48;94179.25;5048714;28;20448;-78
2022/03/07 03:50:45;;;;;;;10.07;7.57;;;;;;;4.89;66.76;94197.66;5045508;28;20449;-78
2022/03/07 03:53:11;;;;;;;8.87;6.77;;;;;;;5.33;64.98;94183.28;5047873;28;20183;-79
2022/03/07 03:55:36;;;;;;;8.10;6.53;;;;;;;5.27;65.41;94189.97;5063980;28;20182;-78
2022/03/07 03:58:02;;;;;;;10.17;7.23;;;;;;;5.39;65.24;94181.78;5058380;28;20191;-79
2022/03/07 04:00:28;;;;;;;7.70;6.60;;;;;;;5.06;65.50;94187.97;5063193;28;20649;-79
2022/03/07 04:02:53;;;;;;;6.50;5.83;;;;;;;5.15;65.48;94188.75;5050133;28;20214;-78
2022/03/07 04:05:19;;;;;;;8.70;7.03;;;;;;;5.31;64.91;94184.44;5061663;28;20460;-78
2022/03/07 04:07:45;;;;;;;11.00;6.57;;;;;;;5.24;65.09;94187.72;5060807;28;20205;-78
2022/03/07 04:10:14;;;;;;;8.43;6.50;;;;;;;5.25;65.11;94186.75;5061159;28;20183;-79
2022/03/07 04:12:41;;;;;;;7.03;5.50;;;;;;;4.54;67.21;94187.78;5049184;28;20595;-78
2022/03/07 04:15:08;;;;;;;8.70;6.53;;;;;;;5.01;65.51;94190.31;5062771;28;20420;-79
2022/03/07 04:17:37;;;;;;;8.60;6.67;;;;;;;4.93;65.38;94189.53;5060002;28;20442;-78
2022/03/07 04:20:03;;;;;;;6.50;4.90;;;;;;;4.99;64.98;94194.03;5046568;28;20421;-78
2022/03/07 04:22:29;;;;;;;8.60;6.17;;;;;;;4.62;66.32;94190.34;5050274;28;20461;-79
2022/03/07 04:24:54;;;;;;;7.60;5.13;;;;;;;4.45;67.51;94190.41;5046634;28;20481;-79
2022/03/07 04:27:19;;;;;;;7.73;6.77;;;;;;;4.59;67.16;94198.44;5047303;28;20178;-79
2022/03/07 04:29:45;;;;;;;9.50;6.30;;;;;;;5.03;65.28;94192.72;5047285;28;20172;-78
2022/03/07 04:32:10;;;;;;;8.00;6.00;;;;;;;4.71;66.21;94193.72;5058369;28;20201;-78
2022/03/07 04:34:36;;;;;;;8.57;5.73;;;;;;;4.29;67.47;94196.47;5046862;28;20169;-78
2022/03/07 04:37:02;;;;;;;8.10;6.30;;;;;;;4.55;67.56;94195.38;5061689;28;20182;-78
2022/03/07 04:39:27;;;;;;;9.57;6.57;;;;;;;4.89;66.05;94202.03;5061301;28;20183;-78
2022/03/07 04:41:53;;;;;;;7.07;6.33;;;;;;;4.94;65.83;94193.75;5051250;28;20187;-79
2022/03/07 04:44:18;;;;;;;8.03;6.20;;;;;;;4.74;66.96;94193.34;5049650;28;20207;-78
2022/03/07 04:46:43;;;;;;;9.77;8.23;;;;;;;5.01;65.66;94189.50;5060344;28;20182;-78
2022/03/07 04:49:11;;;;;;;8.53;7.17;;;;;;;4.81;66.56;94192.50;5047635;28;20214;-78
2022/03/07 04:51:37;;;;;;;9.23;7.40;;;;;;;4.89;66.13;94202.84;5058779;28;20605;-79
2022/03/07 04:54:03;;;;;;;7.77;6.97;;;;;;;4.99;65.48;94191.44;5052552;28;20432;-78
2022/03/07 04:56:28;;;;;;;7.43;6.70;;;;;;;5.20;64.74;94194.25;5058773;28;20440;-77
2022/03/07 04:58:54;;;;;;;12.33;9.30;;;;;;;4.85;65.77;94196.38;5050194;28;20191;-79
2022/03/07 05:01:19;;;;;;;11.03;9.27;;;;;;;5.07;65.46;94187.03;5055754;28;20178;-78
2022/03/07 05:03:45;;;;;;;9.10;7.13;;;;;;;5.22;65.32;94194.88;5052382;28;20283;-78
2022/03/07 05:06:10;;;;;;;11.73;8.20;;;;;;;5.06;66.54;94194.97;5060454;28;20196;-78
2022/03/07 05:08:39;;;;;;;8.83;7.90;;;;;;;5.21;66.07;94193.25;5053645;28;20241;-78
2022/03/07 05:11:05;;;;;;;12.07;8.20;;;;;;;4.97;66.23;94193.41;5057129;28;20230;-79
2022/03/07 05:13:31;;;;;;;13.80;9.50;;;;;;;5.15;66.05;94201.72;5054242;28;20474;-78
2022/03/07 05:15:56;;;;;;;9.23;7.80;;;;;;;5.12;65.67;94201.25;5046466;28;20455;-79
2022/03/07 05:18:22;;;;;;;6.17;5.57;;;;;;;5.14;65.33;94202.72;5046341;28;20211;-78
2022/03/07 05:20:47;;;;;;;10.07;7.77;;;;;;;5.33;64.11;94198.03;5058399;28;20186;-78
2022/03/07 05:23:13;;;;;;;8.93;8.03;;;;;;;4.93;65.81;94192.13;5050813;28;20175;-78
2022/03/07 05:25:38;;;;;;;4.60;4.20;;;;;;;4.84;66.09;94199.97;5054150;28;20198;-79
2022/03/07 05:28:04;;;;;;;11.30;8.00;;;;;;;4.25;67.98;94194.34;5060600;28;20179;-78
2022/03/07 05:30:29;;;;;;;10.70;7.43;;;;;;;4.67;67.53;94188.06;5046282;28;20175;-78
2022/03/07 05:32:55;;;;;;;9.97;4.60;;;;;;;4.82;66.46;94191.53;5062309;28;20432;-78
2022/03/07 05:35:22;;;;;;;8.30;7.33;;;;;;;4.67;67.08;94191.44;5054814;28;20174;-78
2022/03/07 05:37:48;;;;;;;10.77;8.60;;;;;;;5.03;65.64;94192.72;5060508;28;20449;-78
2022/03/07 05:40:15;;;;;;;9.40;5.95;;;;;;;4.96;66.47;94196.97;5055327;28;20492;-78
2022/03/07 05:42:41;;;;;;;6.00;4.70;;;;;;;4.05;68.65;94205.09;5052904;28;20203;-79
2022/03/07 05:45:08;;;;;;;4.83;3.60;;;;;;;4.18;68.92;94208.97;5050983;28;20480;-78
2022/03/07 05:47:35;;;;;;;9.87;6.97;;;;;;;4.15;69.02;94198.91;5040184;28;20441;-78
2022/03/07 05:50:00;;;;;;;7.60;6.63;;;;;;;4.40;67.90;94197.88;5043462;28;20429;-78
2022/03/07 05:52:26;;;;;;;7.63;6.03;;;;;;;4.58;67.79;94196.84;5058956;28;20439;-79
2022/03/07 05:54:52;;;;;;;8.40;6.60;;;;;;;4.44;67.98;94199.16;5041749;28;20175;-78
2022/03/07 05:57:17;;;;;;;12.90;7.40;;;;;;;4.48;68.14;94200.44;5032318;28;20473;-78
2022/03/07 05:59:43;;;;;;;9.00;4.27;;;;;;;4.37;68.07;94202.59;5049587;28;20194;-78
2022/03/07 06:02:08;;;;;;;7.97;6.20;;;;;;;4.30;68.96;94202.44;5045911;28;20191;-78
2022/03/07 06:04:34;;;;;;;9.23;6.27;;;;;;;4.63;67.92;94210.09;5045782;28;20230;-79
2022/03/07 06:06:59;;;;;;;9.53;7.87;;;;;;;4.52;68.34;94200.13;5058207;28;20269;-78
2022/03/07 06:09:25;;;;;;;10.03;7.50;;;;;;;4.93;67.13;94202.50;5054582;28;20191;-78
2022/03/07 06:11:51;;;;;;;12.67;9.33;;;;;;;4.82;68.20;94201.13;5056857;28;20234;-78
2022/03/07 06:14:16;;;;;;;11.63;9.40;;;;;;;4.75;68.48;94200.97;5049565;28;20254;-78
2022/03/07 06:16:42;;;;;;;12.60;10.23;;;;;;;5.24;67.58;94211.06;5062942;28;20213;-79
2022/03/07 06:19:08;;;;;;;12.00;10.70;;;;;;;5.07;67.57;94199.19;5067067;28;20285;-78
2022/03/07 06:21:34;;;;;;;15.10;10.40;;;;;;;5.37;66.78;94207.06;5069589;28;20221;-78
2022/03/07 06:23:59;;;;;;;10.83;9.70;;;;;;;5.48;66.78;94201.47;5066332;28;20273;-78
2022/03/07 06:26:24;;;;;;;15.43;10.10;;;;;;;5.37;66.79;94207.06;5066969;28;20511;-78
2022/03/07 06:28:51;;;;;;;12.17;10.90;;;;;;;5.35;67.26;94203.84;5061948;28;20288;-78
2022/03/07 06:31:16;;;;;;;11.80;9.67;;;;;;;4.81;68.18;94202.06;5047843;28;20183;-78
2022/03/07 06:33:42;;;;;;;12.93;9.97;;;;;;;5.32;67.31;94206.81;5061103;28;20424;-78
2022/03/07 06:36:08;;;;;;;13.37;11.20;;;;;;;5.56;66.35;94201.44;5060760;28;20253;-78
2022/03/07 06:38:34;;;;;;;14.57;10.57;;;;;;;5.50;66.10;94196.94;5049088;28;20609;-78
2022/03/07 06:41:00;;;;;;;12.00;10.30;;;;;;;5.57;66.04;94204.84;5069092;28;20903;-79
2022/03/07 06:43:26;;;;;;;12.47;11.17;;;;;;;5.56;66.02;94204.03;5063539;28;20449;-79
2022/03/07 06:45:52;;;;;;;12.50;10.93;;;;;;;5.68;65.41;94207.00;5047240;28;20218;-79
2022/03/07 06:48:18;;;;;;;15.03;11.93;;;;;;;5.89;65.59;94202.94;5065672;28;21005;-78
2022/03/07 06:50:43;;;;;;;12.80;11.23;;;;;;;6.02;65.16;94196.19;5048409;28;20402;-78
2022/03/07 06:53:09;;;;;;;12.63;11.33;;;;;;;6.06;64.40;94200.03;5057648;28;20281;-79
2022/03/07 06:55:34;;;;;;;11.27;10.07;;;;;;;6.08;64.37;94201.66;5047609;28;20235;-78
2022/03/07 06:58:00;;;;;;;16.73;12.50;;;;;;;6.51;63.94;94200.06;5067231;28;20186;-79
2022/03/07 07:00:25;;;;;;;12.70;10.97;;;;;;;6.45;63.56;94200.81;5047400;28;20218;-78
2022/03/07 07:02:51;;;;;;;15.03;12.73;;;;;;;6.29;63.27;94204.38;5054548;28;20186;-78
2022/03/07 07:05:16;;;;;;;13.17;11.50;;;;;;;6.33;63.43;94200.41;5048786;28;20191;-79
2022/03/07 07:07:43;;;;;;;13.90;12.40;;;;;;;6.19;63.54;94216.81;5053828;28;20198;-78
2022/03/07 07:10:09;;;;;;;10.40;9.33;;;;;;;5.42;64.72;94208.16;5063274;28;20660;-78
2022/03/07 07:12:36;;;;;;;11.53;10.33;;;;;;;5.43;65.12;94211.59;5054667;28;20476;-78
2022/03/07 07:15:06;;;;;;;11.13;10.03;;;;;;;5.84;64.35;94198.28;5062299;28;20448;-78
2022/03/07 07:17:33;;;;;;;13.10;8.37;;;;;;;6.03;63.13;94208.22;5037137;28;20445;-78
2022/03/07 07:19:58;;;;;;;10.53;9.47;;;;;;;6.30;62.52;94206.00;5051554;28;20456;-78
2022/03/07 07:22:24;;;;;;;9.27;7.87;;;;;;;6.24;62.23;94217.06;5050582;28;20449;-78
2022/03/07 07:24:50;;;;;;;10.37;8.30;;;;;;;5.64;64.23;94216.13;5049021;28;20210;-78
2022/03/07 07:27:15;;;;;;;11.63;9.20;;;;;;;6.28;62.07;94207.13;5056796;28;20206;-78
2022/03/07 07:29:40;;;;;;;12.70;7.50;;;;;;;6.10;63.51;94215.28;5048549;28;20191;-78
2022/03/07 07:32:07;;;;;;;8.73;7.83;;;;;;;6.32;62.47;94214.41;5048326;28;20286;-78
2022/03/07 07:34:32;;;;;;;7.10;6.40;;;;;;;6.22;61.37;94216.44;5050514;28;20210;-79
2022/03/07 07:36:57;;;;;;;7.87;7.17;;;;;;;6.04;62.61;94209.81;5053893;28;20441;-78
2022/03/07 07:39:23;;;;;;;6.73;6.10;;;;;;;6.24;61.12;94217.06;5053831;28;20179;-78
2022/03/07 07:41:49;;;;;;;10.73;7.73;;;;;;;6.32;61.00;94230.00;5067979;28;20183;-79
2022/03/07 07:44:16;;;;;;;8.20;7.40;;;;;;;6.30;61.23;94226.78;5065138;28;20507;-78
2022/03/07 07:46:42;;;;;;;9.90;8.40;;;;;;;5.93;61.76;94225.78;5054452;28;20283;-78
2022/03/07 07:49:08;;;;;;;14.90;8.90;;;;;;;6.06;61.97;94226.00;5058474;28;20465;-78
2022/03/07 07:51:33;;;;;;;7.70;7.00;;;;;;;6.22;61.75;94235.47;5057802;28;20805;-78
2022/03/07 07:54:00;;;;;;;8.97;8.07;;;;;;;6.21;61.73;94233.84;5055073;28;20536;-78
2022/03/07 07:56:26;;;;;;;8.50;7.13;;;;;;;6.25;61.65;94240.28;5050403;28;20175;-78
2022/03/07 07:58:52;;;;;;;7.07;6.37;;;;;;;6.33;60.85;94231.59;5059408;28;20418;-78
2022/03/07 08:01:18;;;;;;;8.27;6.60;;;;;;;6.78;58.54;94229.81;5048005;28;20422;-78
2022/03/07 08:03:44;;;;;;;8.07;7.27;;;;;;;6.31;60.06;94232.78;5047940;28;20525;-78
2022/03/07 08:06:09;;;;;;;8.30;7.43;;;;;;;6.61;59.95;94230.97;5053510;28;20170;-79
2022/03/07 08:08:34;;;;;;;8.63;7.73;;;;;;;6.39;59.61;94230.91;5046725;28;20932;-78
2022/03/07 08:11:00;;;;;;;9.13;6.90;;;;;;;6.15;60.89;94233.75;5061561;28;20233;-78
2022/03/07 08:13:25;;;;;;;7.73;6.80;;;;;;;5.92;61.28;94228.56;5047975;28;20215;-78
2022/03/07 08:15:51;;;;;;;8.67;7.80;;;;;;;5.72;61.35;94233.44;5050351;28;20176;-78
2022/03/07 08:18:17;;;;;;;8.37;7.20;;;;;;;5.93;61.19;94233.56;5041741;28;20246;-78
2022/03/07 08:20:43;;;;;;;8.27;7.33;;;;;;;5.56;61.04;94240.38;5093807;28;20167;-78
2022/03/07 08:23:09;;;;;;;11.10;7.00;;;;;;;6.36;59.86;94235.66;5049464;28;20498;-78
2022/03/07 08:25:34;;;;;;;11.13;6.23;;;;;;;6.60;59.59;94231.97;5062939;28;20194;-78
2022/03/07 08:28:00;;;;;;;8.13;6.63;;;;;;;6.40;59.34;94237.69;5058168;28;20228;-78
2022/03/07 08:30:27;;;;;;;7.00;6.30;;;;;;;6.00;61.04;94236.31;5046510;28;20179;-78
2022/03/07 08:32:53;;;;;;;8.37;7.03;;;;;;;6.13;60.81;94236.53;5048941;28;20205;-78
2022/03/07 08:35:19;;;;;;;9.13;7.50;;;;;;;6.29;60.94;94232.94;5051469;28;20428;-78
2022/03/07 08:37:46;;;;;;;8.60;7.00;;;;;;;6.49;59.60;94237.59;5053122;28;20501;-78
2022/03/07 08:40:14;;;;;;;7.20;6.50;;;;;;;6.75;58.87;94237.16;5060590;28;20428;-78
2022/03/07 08:42:40;;;;;;;9.10;6.03;;;;;;;6.63;58.50;94242.00;5058148;28;20429;-78
2022/03/07 08:45:07;;;;;;;7.30;6.10;;;;;;;6.89;58.21;94243.34;5054609;28;20449;-78
2022/03/07 08:47:34;;;;;;;7.00;6.30;;;;;;;6.66;58.96;94241.66;5054942;28;20516;-78
2022/03/07 08:50:00;;;;;;;6.77;6.17;;;;;;;7.16;58.18;94247.84;5057700;28;20445;-78
2022/03/07 08:52:25;;;;;;;7.60;6.90;;;;;;;7.07;57.99;94241.16;5050758;28;20436;-78
2022/03/07 08:54:51;;;;;;;7.50;6.73;;;;;;;7.07;57.38;94240.34;5057289;28;20176;-79
2022/03/07 08:57:16;;;;;;;7.33;6.73;;;;;;;6.75;58.90;94237.94;5063110;28;20204;-78
2022/03/07 08:59:42;;;;;;;15.57;13.83;;;;;;;6.15;60.43;94244.94;5050453;28;20183;-78
2022/03/07 09:02:09;;;;;;;17.73;13.90;;;;;;;6.11;59.66;94248.06;5057684;28;20225;-79
2022/03/07 09:04:36;;;;;;;16.73;13.77;;;;;;;5.70;61.34;94251.78;5059477;28;20444;-79
2022/03/07 09:07:02;;;;;;;19.03;15.43;;;;;;;5.13;64.69;94252.94;5058978;28;20433;-78
2022/03/07 09:09:28;;;;;;;20.27;15.80;;;;;;;5.81;61.93;94242.78;5059786;28;20421;-79
2022/03/07 09:11:54;;;;;;;24.13;15.07;;;;;;;5.91;61.98;94248.53;5060122;28;20465;-78
2022/03/07 09:14:19;;;;;;;22.50;15.73;;;;;;;5.43;62.78;94253.09;5057347;28;20448;-79
2022/03/07 09:16:46;;;;;;;16.93;13.03;;;;;;;5.55;62.57;94243.94;5045883;28;20526;-78
2022/03/07 09:19:12;;;;;;;21.63;15.87;;;;;;;5.02;64.06;94248.94;5042251;28;20418;-78
2022/03/07 09:21:38;;;;;;;22.93;16.20;;;;;;;4.86;64.45;94247.25;5051546;28;20202;-78
2022/03/07 09:24:04;;;;;;;19.10;14.97;;;;;;;5.62;63.31;94241.47;5044320;28;20203;-78
2022/03/07 09:26:29;;;;;;;22.60;16.67;;;;;;;5.94;62.51;94237.78;5053856;28;20194;-78
2022/03/07 09:28:55;;;;;;;23.73;18.00;;;;;;;5.46;63.07;94239.78;5049264;28;20422;-78
2022/03/07 09:31:21;;;;;;;20.20;16.57;;;;;;;5.04;64.79;94246.19;5051782;28;20215;-78
2022/03/07 09:33:46;;;;;;;15.93;12.37;;;;;;;6.27;61.42;94236.72;5056943;28;20201;-78
2022/03/07 09:36:12;;;;;;;13.47;11.37;;;;;;;6.14;60.24;94234.72;5056727;28;20650;-77
2022/03/07 09:38:38;;;;;;;18.63;14.40;;;;;;;5.81;62.54;94238.38;5055319;28;20190;-78
2022/03/07 09:41:05;;;;;;;17.93;15.57;;;;;;;6.13;61.19;94230.50;5051358;28;20271;-78
2022/03/07 09:43:32;;;;;;;21.70;16.70;;;;;;;6.44;60.73;94233.75;5056744;28;20789;-78
2022/03/07 09:45:57;;;;;;;17.27;15.10;;;;;;;5.50;62.84;94235.84;5055482;28;20466;-78
2022/03/07 09:48:24;;;;;;;19.73;16.80;;;;;;;5.86;61.94;94227.47;5048634;28;20445;-78
2022/03/07 09:50:51;;;;;;;21.23;15.93;;;;;;;6.10;62.47;94230.88;5049884;28;20190;-77
2022/03/07 09:53:17;;;;;;;17.27;13.70;;;;;;;6.28;61.21;94227.91;5045803;28;20514;-78
2022/03/07 09:55:44;;;;;;;13.13;11.70;;;;;;;6.43;60.34;94226.13;5044632;28;20480;-78
2022/03/07 09:58:09;;;;;;;17.40;13.47;;;;;;;6.17;60.40;94222.19;5031580;28;20430;-77
2022/03/07 10:00:38;;;;;;;17.27;14.17;;;;;;;6.18;61.45;94217.78;5049489;28;20428;-78
2022/03/07 10:03:05;;;;;;;16.27;12.43;;;;;;;6.40;60.01;94223.91;5050322;28;20194;-78
2022/03/07 10:05:37;;;;;;;15.53;11.67;;;;;;;6.72;59.94;94222.72;5044170;28;20493;-78
2022/03/07 10:08:04;;;;;;;14.27;11.03;;;;;;;6.53;58.55;94234.47;5039476;28;20471;-77
2022/03/07 10:10:36;;;;;;;11.97;9.60;;;;;;;6.18;58.55;94225.59;5052830;28;20414;-77
2022/03/07 10:13:08;;;;;;;15.03;10.60;;;;;;;6.02;59.06;94224.75;5051200;28;20442;-78
2022/03/07 10:15:34;;;;;;;12.63;10.90;;;;;;;6.23;58.90;94241.47;5053111;28;20421;-78
2022/03/07 10:18:00;;;;;;;15.17;8.83;;;;;;;5.79;59.82;94240.34;5061109;28;20445;-79
2022/03/07 10:20:26;;;;;;;16.07;10.97;;;;;;;5.84;59.91;94229.44;5050660;28;20480;-77
2022/03/07 10:22:54;;;;;;;12.20;9.00;;;;;;;5.67;59.43;94220.97;5047975;28;20438;-78
2022/03/07 10:25:31;;;;;;;11.60;9.77;;;;;;;5.51;60.67;94216.72;5042484;28;20215;-78
2022/03/07 10:28:00;;;;;;;8.13;7.27;;;;;;;5.41;60.63;94229.94;5044953;28;20496;-77
2022/03/07 10:30:29;;;;;;;10.50;9.13;;;;;;;5.46;60.71;94227.63;5045582;28;20429;-79
2022/03/07 10:33:06;;;;;;;10.83;9.30;;;;;;;5.52;60.36;94225.31;5051314;28;20439;-78
2022/03/07 10:36:13;;;;;;;;;;;;;;;;;;;;;
2022/03/07 10:39:50;;;;;;;12.13;9.40;;;;;;;5.61;60.43;94216.47;5017114;28;20506;-77
2022/03/07 10:43:27;;;;;;;13.97;10.57;;;;;;;5.74;59.88;94221.09;4982836;28;20448;-78
2022/03/07 10:46:56;;;;;;;15.50;13.60;;;;;;;5.57;60.74;94226.41;4949656;29;20497;-79
2022/03/07 10:49:22;;;;;;;19.50;15.23;;;;;;;5.40;61.51;94224.91;4880839;29;20445;-78
2022/03/07 10:51:54;;;;;;;16.67;14.73;;;;;;;5.48;60.99;94215.28;4932855;28;20495;-78
2022/03/07 10:54:21;;;;;;;18.57;13.83;;;;;;;5.63;60.30;94219.69;5042393;28;20214;-78
2022/03/07 10:56:53;;;;;;;15.03;12.47;;;;;;;5.38;60.89;94221.69;5045676;28;20485;-78
2022/03/07 10:59:32;;;;;;;15.50;13.90;;;;;;;5.90;60.00;94210.56;5039579;28;20445;-78
2022/03/07 11:02:19;;;;;;;13.70;12.20;;;;;;;5.92;59.96;94219.00;5057400;28;20437;-78
2022/03/07 11:16:11;;;;;;;20.37;15.40;;;;;;;6.02;59.08;94211.78;4974332;28;20486;-78
2022/03/07 11:18:39;;;;;;;11.93;9.37;;;;;;;5.50;60.19;94209.91;4981705;28;20461;-78
2022/03/07 11:21:05;;;;;;;15.03;13.33;;;;;;;5.12;60.80;94212.41;5063172;28;20424;-78
2022/03/07 11:23:31;;;;;;;12.17;10.33;;;;;;;5.45;60.33;94207.03;5055980;28;20487;-78
2022/03/07 11:25:58;;;;;;;12.70;11.40;;;;;;;5.63;59.91;94202.38;5065084;28;20535;-79
2022/03/07 11:28:31;;;;;;;23.20;15.40;;;;;;;5.65;60.20;94208.19;5064536;28;20422;-79
2022/03/07 11:30:57;;;;;;;17.70;13.90;;;;;;;5.68;59.70;94202.63;5062633;28;20453;-78
2022/03/07 11:33:28;;;;;;;13.77;10.30;;;;;;;5.52;58.97;94201.94;5054222;28;20434;-79
2022/03/07 11:35:54;;;;;;;20.10;14.27;;;;;;;6.15;58.26;94202.56;5064664;28;20464;-78
2022/03/07 11:38:24;;;;;;;16.97;14.60;;;;;;;6.00;58.49;94199.97;5059523;28;20452;-79
2022/03/07 11:40:59;;;;;;;25.27;20.03;;;;;;;6.13;58.36;94199.31;5064197;28;20504;-80
2022/03/07 11:43:26;;;;;;;20.27;15.63;;;;;;;6.16;58.88;94193.78;5038354;28;20438;-78
2022/03/07 11:45:53;;;;;;;19.23;16.73;;;;;;;5.86;59.38;94189.34;5058258;28;20481;-78
2022/03/07 11:48:19;;;;;;;16.17;14.37;;;;;;;6.27;57.88;94195.94;5047791;28;20509;-79
2022/03/07 11:50:45;;;;;;;16.07;14.13;;;;;;;6.22;57.90;94193.06;5061353;28;20441;-78
2022/03/07 11:53:14;;;;;;;18.70;14.97;;;;;;;6.59;57.09;94188.78;5054644;28;20429;-79
2022/03/07 11:55:45;;;;;;;15.23;12.73;;;;;;;6.38;57.96;94177.31;5048007;28;20452;-78